createdAt,value
2017-10-29T00:15:49.534Z,13.20
2017-10-29T00:18:21.921Z,13.20
2017-10-29T00:20:55.094Z,13.10
2017-10-29T00:23:29.506Z,13.20
2017-10-29T00:26:17.955Z,13.20
2017-10-29T00:28:53.299Z,13.20
2017-10-29T00:31:40.643Z,13.20
2017-10-29T00:34:10.142Z,13.20
2017-10-29T00:36:39.170Z,13.20
2017-10-29T00:39:23.980Z,13.20
2017-10-29T00:42:04.504Z,13.20
2017-10-29T00:44:58.138Z,13.20
2017-10-29T00:47:32.605Z,13.10
2017-10-29T00:50:11.488Z,13.20
2017-10-29T01:05:46.890Z,13.20
2017-10-29T01:08:33.453Z,13.10
2017-10-29T01:11:08.068Z,13.10
2017-10-29T01:26:37.185Z,13.10
2017-10-29T01:29:06.691Z,13.20
2017-10-29T01:31:36.069Z,13.10
2017-10-29T01:34:10.390Z,13.20
2017-10-29T01:36:46.864Z,13.20
2017-10-29T01:39:30.984Z,13.10
2017-10-29T01:42:05.054Z,13.10
2017-10-29T01:44:40.715Z,13.10
2017-10-29T01:47:12.621Z,13.20
2017-10-29T01:49:46.006Z,13.20
2017-10-29T01:52:20.462Z,13.20
2017-10-29T01:54:50.191Z,13.30
2017-10-29T01:57:18.484Z,13.30
2017-10-29T01:59:57.336Z,13.30
2017-10-29T02:02:25.946Z,13.30
2017-10-29T02:04:54.112Z,13.30
2017-10-29T02:07:23.063Z,13.20
2017-10-29T02:09:51.178Z,13.20
2017-10-29T02:12:20.144Z,13.30
2017-10-29T02:14:49.011Z,13.30
2017-10-29T02:17:17.162Z,13.20
2017-10-29T02:19:45.293Z,13.20
2017-10-29T02:39:36.704Z,13.30
2017-10-29T02:42:04.808Z,13.30
2017-10-29T02:44:40.723Z,13.30
2017-10-29T02:47:09.259Z,13.30
2017-10-29T02:49:37.742Z,13.30
2017-10-29T02:52:11.998Z,13.40
2017-10-29T02:57:31.125Z,13.40
2017-10-29T03:00:07.645Z,13.40
2017-10-29T03:12:22.052Z,13.40
2017-10-29T03:14:50.891Z,13.30
2017-10-29T03:17:19.827Z,13.30
2017-10-29T03:19:59.023Z,13.20
2017-10-29T03:22:30.223Z,13.30
2017-10-29T03:24:58.307Z,13.30
2017-10-29T03:27:26.410Z,13.00
2017-10-29T03:29:54.498Z,12.80
2017-10-29T03:32:22.592Z,12.60
2017-10-29T03:34:50.651Z,12.50
2017-10-29T03:37:18.687Z,12.50
2017-10-29T03:39:46.767Z,12.50
2017-10-29T03:42:14.833Z,12.40
2017-10-29T03:44:42.936Z,12.30
2017-10-29T03:47:10.972Z,12.30
2017-10-29T03:49:39.056Z,12.20
2017-10-29T03:52:07.122Z,12.20
2017-10-29T03:54:35.195Z,12.20
2017-10-29T03:57:03.254Z,12.10
2017-10-29T03:59:31.354Z,12.10
2017-10-29T04:01:59.410Z,12.10
2017-10-29T04:04:27.474Z,12.10
2017-10-29T04:06:55.550Z,12.00
2017-10-29T04:09:23.599Z,11.90
2017-10-29T04:11:52.464Z,11.80
2017-10-29T04:14:20.517Z,11.80
2017-10-29T04:16:48.606Z,11.80
2017-10-29T04:19:16.661Z,11.80
2017-10-29T04:21:44.731Z,11.70
2017-10-29T04:24:12.787Z,11.80
2017-10-29T04:26:40.893Z,11.70
2017-10-29T04:29:08.944Z,11.70
2017-10-29T04:31:37.039Z,11.70
2017-10-29T04:34:05.119Z,11.60
2017-10-29T04:36:33.225Z,11.60
2017-10-29T04:39:02.080Z,11.50
2017-10-29T04:41:30.161Z,11.40
2017-10-29T04:43:59.029Z,11.40
2017-10-29T04:46:27.107Z,11.40
2017-10-29T04:48:55.192Z,11.50
2017-10-29T04:51:24.028Z,11.60
2017-10-29T04:53:52.131Z,11.50
2017-10-29T04:56:20.196Z,11.60
2017-10-29T04:58:48.293Z,11.70
2017-10-29T05:01:17.897Z,11.60
2017-10-29T05:03:47.801Z,11.70
2017-10-29T05:06:16.750Z,11.70
2017-10-29T05:08:45.664Z,11.70
2017-10-29T05:11:13.796Z,11.70
2017-10-29T05:13:41.973Z,11.70
2017-10-29T05:16:10.098Z,11.70
2017-10-29T05:18:38.152Z,11.70
2017-10-29T05:21:06.239Z,11.70
2017-10-29T05:23:34.290Z,11.80
2017-10-29T05:26:02.355Z,11.80
2017-10-29T05:28:31.196Z,11.70
2017-10-29T05:30:59.296Z,11.60
2017-10-29T05:33:28.134Z,11.50
2017-10-29T05:35:56.206Z,11.50
2017-10-29T05:38:24.293Z,11.50
2017-10-29T05:40:52.343Z,11.40
2017-10-29T05:43:20.420Z,11.30
2017-10-29T05:45:48.475Z,11.30
2017-10-29T05:48:16.563Z,11.30
2017-10-29T05:50:44.620Z,11.30
2017-10-29T05:53:12.705Z,11.40
2017-10-29T05:55:40.809Z,11.30
2017-10-29T05:58:08.892Z,11.30
2017-10-29T06:00:36.996Z,11.20
2017-10-29T06:03:05.074Z,11.20
2017-10-29T06:05:33.165Z,11.10
2017-10-29T06:08:01.215Z,11.10
2017-10-29T06:10:29.330Z,11.10
2017-10-29T06:12:58.152Z,11.10
2017-10-29T06:15:26.260Z,11.10
2017-10-29T06:17:54.306Z,11.10
2017-10-29T06:20:22.389Z,11.00
2017-10-29T06:22:50.971Z,10.90
2017-10-29T06:25:19.103Z,10.80
2017-10-29T06:27:47.189Z,10.70
2017-10-29T06:30:15.331Z,10.60
2017-10-29T06:32:43.384Z,10.60
2017-10-29T06:35:12.251Z,10.70
2017-10-29T06:37:40.318Z,10.60
2017-10-29T06:40:08.388Z,10.80
2017-10-29T06:42:36.458Z,10.80
2017-10-29T06:45:04.526Z,10.80
2017-10-29T06:47:32.672Z,10.80
2017-10-29T06:50:00.806Z,10.80
2017-10-29T06:52:28.971Z,10.80
2017-10-29T06:54:58.954Z,10.90
2017-10-29T06:57:27.067Z,11.00
2017-10-29T06:59:55.170Z,11.10
2017-10-29T07:15:23.282Z,11.20
2017-10-29T07:17:52.148Z,10.70
2017-10-29T07:20:20.240Z,10.70
2017-10-29T07:22:48.375Z,10.80
2017-10-29T07:25:16.526Z,10.90
2017-10-29T07:27:44.594Z,11.00
2017-10-29T07:30:12.671Z,11.20
2017-10-29T07:32:40.896Z,11.30
2017-10-29T07:35:09.091Z,11.30
2017-10-29T07:37:37.920Z,11.40
2017-10-29T07:40:05.999Z,11.40
2017-10-29T07:42:34.063Z,11.60
2017-10-29T07:45:02.178Z,11.60
2017-10-29T07:47:30.992Z,11.80
2017-10-29T07:49:59.097Z,11.80
2017-10-29T07:52:27.192Z,11.80
2017-10-29T07:54:55.297Z,12.00
2017-10-29T07:57:23.331Z,12.20
2017-10-29T07:59:51.420Z,12.30
2017-10-29T08:02:20.231Z,12.40
2017-10-29T08:04:48.331Z,12.40
2017-10-29T08:07:16.432Z,12.50
2017-10-29T08:09:44.529Z,12.40
2017-10-29T08:12:12.638Z,12.50
2017-10-29T08:14:40.745Z,12.60
2017-10-29T08:17:09.074Z,12.70
2017-10-29T08:19:41.288Z,12.70
2017-10-29T08:25:32.802Z,13.00
2017-10-29T08:30:41.229Z,13.20
2017-10-29T08:36:18.580Z,13.50
2017-10-29T08:38:47.664Z,13.60
2017-10-29T08:41:15.933Z,13.70
2017-10-29T08:53:29.789Z,13.70
2017-10-29T08:55:59.124Z,13.90
2017-10-29T08:58:28.058Z,13.90
2017-10-29T09:00:56.600Z,14.20
2017-10-29T09:03:24.961Z,14.30
2017-10-29T09:05:53.278Z,14.60
2017-10-29T09:08:24.435Z,15.20
2017-10-29T09:10:53.916Z,15.10
2017-10-29T09:13:22.004Z,15.30
2017-10-29T09:15:50.887Z,15.80
2017-10-29T09:18:18.966Z,15.80
2017-10-29T09:20:47.028Z,16.10
2017-10-29T09:23:15.882Z,17.80
2017-10-29T09:25:43.951Z,17.80
2017-10-29T09:28:12.048Z,18.50
2017-10-29T09:30:40.133Z,18.50
2017-10-29T09:33:08.241Z,18.00
2017-10-29T09:35:36.346Z,19.30
2017-10-29T09:38:04.404Z,19.90
2017-10-29T09:40:32.532Z,19.00
2017-10-29T09:43:01.360Z,17.70
2017-10-29T09:45:29.426Z,17.70
2017-10-29T09:47:57.516Z,18.50
2017-10-29T09:50:25.600Z,20.30
2017-10-29T09:52:53.688Z,20.40
2017-10-29T09:55:21.748Z,20.90
2017-10-29T09:57:49.820Z,21.40
2017-10-29T10:00:18.507Z,22.50
2017-10-29T10:02:46.609Z,21.60
2017-10-29T10:05:15.463Z,21.10
2017-10-29T10:07:45.108Z,21.00
2017-10-29T10:10:13.923Z,19.50
2017-10-29T10:12:42.010Z,19.40
2017-10-29T10:15:10.082Z,19.00
2017-10-29T10:17:38.191Z,18.60
2017-10-29T10:20:06.257Z,18.00
2017-10-29T10:22:34.319Z,17.20
2017-10-29T10:25:02.388Z,16.40
2017-10-29T10:27:30.499Z,15.70
2017-10-29T10:29:58.568Z,15.20
2017-10-29T10:32:26.648Z,15.30
2017-10-29T10:34:54.731Z,16.40
2017-10-29T10:37:22.821Z,18.10
2017-10-29T10:39:50.910Z,19.20
2017-10-29T10:42:18.987Z,21.20
2017-10-29T10:44:47.047Z,23.10
2017-10-29T10:47:15.136Z,23.20
2017-10-29T10:49:43.987Z,21.50
2017-10-29T10:52:12.057Z,21.40
2017-10-29T10:54:40.140Z,20.70
2017-10-29T10:57:08.228Z,20.30
2017-10-29T10:59:36.288Z,19.60
2017-10-29T11:02:04.967Z,20.20
2017-10-29T11:04:41.021Z,21.20
2017-10-29T11:07:09.099Z,19.40
2017-10-29T11:09:37.226Z,18.40
2017-10-29T11:12:05.291Z,18.50
2017-10-29T11:17:08.563Z,19.50
2017-10-29T11:19:36.656Z,20.90
2017-10-29T11:22:05.586Z,24.10
2017-10-29T11:24:34.414Z,23.50
2017-10-29T11:27:02.495Z,23.50
2017-10-29T11:29:30.558Z,21.90
2017-10-29T11:31:59.388Z,20.50
2017-10-29T11:34:28.211Z,16.50
2017-10-29T11:36:56.319Z,16.40
2017-10-29T11:39:24.405Z,15.60
2017-10-29T11:41:53.275Z,14.30
2017-10-29T11:44:21.653Z,14.20
2017-10-29T11:46:49.734Z,13.80
2017-10-29T11:49:17.897Z,13.60
2017-10-29T11:51:45.998Z,13.20
2017-10-29T11:54:14.043Z,12.90
2017-10-29T11:56:42.151Z,12.80
2017-10-29T11:59:10.292Z,12.90
2017-10-29T12:01:38.440Z,13.40
2017-10-29T12:04:06.521Z,15.40
2017-10-29T12:06:34.597Z,18.20
2017-10-29T12:09:02.664Z,20.80
2017-10-29T12:11:30.780Z,22.90
2017-10-29T12:13:58.810Z,23.00
2017-10-29T12:16:26.873Z,20.80
2017-10-29T12:18:54.965Z,19.60
2017-10-29T12:21:23.027Z,18.10
2017-10-29T12:23:51.118Z,16.90
2017-10-29T12:26:19.241Z,16.20
2017-10-29T12:28:47.331Z,15.60
2017-10-29T12:31:15.403Z,15.40
2017-10-29T12:33:43.495Z,15.30
2017-10-29T12:36:11.560Z,15.30
2017-10-29T12:38:40.225Z,15.50
2017-10-29T12:41:08.317Z,15.60
2017-10-29T12:43:36.412Z,15.50
2017-10-29T12:46:05.237Z,15.20
2017-10-29T12:48:33.308Z,15.20
2017-10-29T12:51:01.420Z,14.80
2017-10-29T12:53:29.507Z,14.80
2017-10-29T12:55:58.350Z,14.90
2017-10-29T12:58:26.456Z,14.80
2017-10-29T13:00:55.394Z,14.90
2017-10-29T13:03:24.230Z,15.00
2017-10-29T13:05:52.326Z,15.00
2017-10-29T13:08:21.176Z,15.40
2017-10-29T13:10:49.251Z,15.40
2017-10-29T13:13:17.308Z,15.60
2017-10-29T13:15:45.530Z,15.70
2017-10-29T13:18:14.341Z,15.70
2017-10-29T13:20:42.415Z,15.70
2017-10-29T13:23:10.479Z,15.40
2017-10-29T13:25:38.555Z,15.10
2017-10-29T13:28:06.617Z,15.10
2017-10-29T13:30:34.721Z,15.30
2017-10-29T13:33:02.799Z,15.20
2017-10-29T13:35:30.871Z,15.10
2017-10-29T13:37:58.967Z,14.80
2017-10-29T13:40:27.798Z,14.60
2017-10-29T13:42:55.901Z,14.50
2017-10-29T13:45:23.967Z,14.80
2017-10-29T13:47:52.049Z,14.80
2017-10-29T13:50:21.620Z,14.60
2017-10-29T13:52:49.714Z,14.60
2017-10-29T13:55:17.799Z,14.60
2017-10-29T13:57:45.884Z,14.80
2017-10-29T14:00:14.745Z,14.70
2017-10-29T14:02:42.840Z,14.70
2017-10-29T14:05:10.962Z,14.80
2017-10-29T14:07:39.053Z,14.70
2017-10-29T14:10:07.124Z,14.50
2017-10-29T14:12:35.211Z,14.40
2017-10-29T14:15:03.287Z,14.30
2017-10-29T14:17:32.209Z,14.40
2017-10-29T14:20:01.013Z,14.40
2017-10-29T14:22:29.116Z,14.40
2017-10-29T14:24:57.181Z,14.40
2017-10-29T14:27:25.299Z,14.20
2017-10-29T14:29:54.160Z,14.20
2017-10-29T14:32:23.003Z,14.20
2017-10-29T14:34:51.305Z,14.20
2017-10-29T14:37:19.385Z,14.20
2017-10-29T14:39:47.465Z,14.30
2017-10-29T14:42:15.607Z,14.20
2017-10-29T14:44:43.673Z,14.10
2017-10-29T14:47:11.751Z,13.90
2017-10-29T14:49:39.904Z,13.80
2017-10-29T14:52:08.711Z,13.70
2017-10-29T14:54:36.799Z,13.60
2017-10-29T14:57:04.878Z,13.80
2017-10-29T14:59:32.990Z,13.70
2017-10-29T15:02:01.807Z,13.40
2017-10-29T15:04:29.877Z,13.30
2017-10-29T15:06:57.953Z,13.00
2017-10-29T15:09:26.052Z,12.80
2017-10-29T15:11:54.269Z,12.70
2017-10-29T15:14:23.108Z,12.50
2017-10-29T15:16:51.187Z,12.40
2017-10-29T15:19:19.290Z,12.40
2017-10-29T15:21:48.139Z,12.30
2017-10-29T15:24:16.196Z,12.20
2017-10-29T15:26:44.308Z,12.20
2017-10-29T15:29:12.372Z,12.10
2017-10-29T15:31:40.486Z,12.20
2017-10-29T15:34:08.596Z,12.10
2017-10-29T15:36:36.679Z,12.20
2017-10-29T15:39:04.779Z,12.10
2017-10-29T15:41:33.633Z,12.00
2017-10-29T15:44:01.742Z,11.90
2017-10-29T15:46:29.789Z,12.00
2017-10-29T15:48:57.877Z,11.90
2017-10-29T15:51:26.713Z,12.00
2017-10-29T15:53:54.791Z,12.00
2017-10-29T15:56:22.862Z,12.00
2017-10-29T15:58:50.977Z,12.10
2017-10-29T16:01:20.637Z,11.90
2017-10-29T16:03:48.726Z,11.90
2017-10-29T16:06:16.807Z,11.80
2017-10-29T16:08:44.884Z,11.60
2017-10-29T16:11:12.981Z,11.50
2017-10-29T16:13:41.060Z,11.40
2017-10-29T16:16:09.220Z,11.40
2017-10-29T16:18:38.038Z,11.30
2017-10-29T16:21:07.081Z,11.30
2017-10-29T16:23:36.058Z,11.40
2017-10-29T16:26:05.652Z,11.30
2017-10-29T16:28:33.725Z,11.30
2017-10-29T16:31:01.790Z,11.10
2017-10-29T16:33:29.879Z,11.10
2017-10-29T16:35:57.968Z,10.90
2017-10-29T16:38:26.819Z,10.80
2017-10-29T16:40:54.900Z,10.70
2017-10-29T16:43:22.977Z,10.80
2017-10-29T16:45:51.053Z,10.90
2017-10-29T16:48:19.124Z,10.90
2017-10-29T16:50:47.211Z,10.80
2017-10-29T16:53:17.039Z,10.70
2017-10-29T16:55:45.885Z,10.70
2017-10-29T16:58:13.991Z,10.60
2017-10-29T17:00:43.577Z,10.70
2017-10-29T17:03:11.627Z,10.70
2017-10-29T17:05:39.716Z,10.80
2017-10-29T17:08:07.796Z,10.70
2017-10-29T17:10:36.847Z,10.60
2017-10-29T17:13:05.035Z,10.60
2017-10-29T17:15:33.106Z,10.60
2017-10-29T17:18:01.188Z,10.50
2017-10-29T17:20:29.285Z,10.40
2017-10-29T17:22:58.109Z,10.60
2017-10-29T17:25:26.174Z,10.50
2017-10-29T17:27:54.264Z,10.60
2017-10-29T17:30:22.332Z,10.70
2017-10-29T17:32:50.435Z,10.80
2017-10-29T17:35:18.511Z,10.70
2017-10-29T17:37:47.424Z,10.60
2017-10-29T17:40:16.280Z,10.50
2017-10-29T17:42:44.364Z,10.40
2017-10-29T17:45:12.436Z,10.50
2017-10-29T17:47:40.528Z,10.50
2017-10-29T17:50:09.374Z,10.60
2017-10-29T17:52:37.502Z,10.60
2017-10-29T17:55:06.312Z,10.60
2017-10-29T17:57:34.407Z,10.50
2017-10-29T18:00:02.475Z,10.60
2017-10-29T18:02:30.567Z,10.50
2017-10-29T18:04:59.442Z,10.30
2017-10-29T18:07:27.510Z,10.20
2017-10-29T18:09:55.587Z,10.20
2017-10-29T18:12:23.652Z,10.10
2017-10-29T18:14:52.523Z,10.10
2017-10-29T18:17:20.595Z,10.00
2017-10-29T18:19:48.731Z,10.10
2017-10-29T18:22:16.849Z,10.20
2017-10-29T18:24:44.921Z,10.10
2017-10-29T18:27:13.013Z,10.20
2017-10-29T18:29:41.080Z,10.30
2017-10-29T18:32:09.928Z,10.50
2017-10-29T18:34:38.007Z,10.40
2017-10-29T18:37:07.053Z,10.30
2017-10-29T18:39:35.142Z,10.20
2017-10-29T18:42:03.240Z,10.10
2017-10-29T18:44:31.320Z,10.10
2017-10-29T18:46:59.407Z,10.20
2017-10-29T18:49:27.483Z,10.30
2017-10-29T18:51:55.567Z,10.10
2017-10-29T18:54:23.659Z,9.90
2017-10-29T18:56:52.511Z,9.80
2017-10-29T18:59:20.593Z,9.80
2017-10-29T19:01:48.667Z,9.90
2017-10-29T19:04:16.744Z,9.80
2017-10-29T19:06:44.819Z,9.70
2017-10-29T19:09:13.686Z,9.70
2017-10-29T19:11:41.776Z,9.60
2017-10-29T19:14:11.285Z,9.70
2017-10-29T19:16:39.343Z,9.70
2017-10-29T19:19:07.524Z,9.70
2017-10-29T19:21:35.569Z,9.70
2017-10-29T19:24:03.655Z,9.70
2017-10-29T19:26:31.744Z,9.80
2017-10-29T19:28:59.848Z,9.90
2017-10-29T19:31:27.930Z,10.10
2017-10-29T19:33:56.809Z,10.00
2017-10-29T19:36:25.847Z,9.90
2017-10-29T19:38:53.913Z,9.80
2017-10-29T19:41:22.009Z,9.90
2017-10-29T19:43:50.100Z,9.90
2017-10-29T19:46:18.191Z,9.80
2017-10-29T19:48:48.252Z,9.60
2017-10-29T19:51:20.505Z,9.40
2017-10-29T19:53:51.006Z,9.30
2017-10-29T19:56:23.787Z,9.30
2017-10-29T19:58:54.930Z,9.20
2017-10-29T20:01:25.793Z,9.40
2017-10-29T20:03:56.369Z,9.40
2017-10-29T20:06:28.240Z,9.50
2017-10-29T20:08:59.634Z,9.30
2017-10-29T20:11:27.845Z,9.30
2017-10-29T20:13:55.921Z,9.30
2017-10-29T20:16:23.986Z,9.30
2017-10-29T20:18:52.359Z,9.30
2017-10-29T20:21:20.383Z,9.40
2017-10-29T20:23:48.491Z,9.50
2017-10-29T20:26:16.715Z,9.50
2017-10-29T20:28:44.853Z,9.40
2017-10-29T20:31:12.920Z,9.40
2017-10-29T20:33:41.048Z,9.50
2017-10-29T20:36:09.134Z,9.60
2017-10-29T20:38:37.275Z,9.60
2017-10-29T20:41:06.164Z,9.80
2017-10-29T20:43:34.972Z,9.70
2017-10-29T20:46:03.099Z,9.60
2017-10-29T20:48:31.164Z,9.70
2017-10-29T20:51:00.031Z,9.70
2017-10-29T20:53:28.107Z,9.60
2017-10-29T20:55:56.188Z,9.40
2017-10-29T20:58:24.258Z,9.40
2017-10-29T21:00:52.358Z,9.20
2017-10-29T21:03:21.367Z,9.00
2017-10-29T21:05:50.279Z,9.00
2017-10-29T21:08:18.378Z,9.00
2017-10-29T21:10:46.463Z,9.10
2017-10-29T21:13:14.576Z,9.10
2017-10-29T21:15:43.007Z,9.10
2017-10-29T21:18:11.818Z,9.40
2017-10-29T21:20:39.881Z,9.30
2017-10-29T21:23:07.973Z,9.40
2017-10-29T21:25:36.032Z,9.50
2017-10-29T21:28:04.146Z,9.60
2017-10-29T21:30:32.972Z,9.40
2017-10-29T21:33:01.047Z,9.30
2017-10-29T21:35:29.141Z,9.30
2017-10-29T21:37:57.967Z,9.20
2017-10-29T21:40:26.030Z,9.20
2017-10-29T21:42:55.312Z,9.20
2017-10-29T21:45:23.639Z,9.10
2017-10-29T21:47:51.672Z,9.30
2017-10-29T21:50:19.781Z,9.40
2017-10-29T21:52:48.594Z,9.30
2017-10-29T21:55:16.676Z,9.30
2017-10-29T21:57:45.640Z,9.20
2017-10-29T22:00:13.746Z,9.20
2017-10-29T22:02:41.833Z,9.20
2017-10-29T22:05:09.921Z,9.20
2017-10-29T22:07:38.911Z,9.30
2017-10-29T22:10:07.771Z,9.20
2017-10-29T22:12:35.865Z,9.20
2017-10-29T22:15:03.933Z,9.40
2017-10-29T22:17:32.017Z,9.30
2017-10-29T22:20:00.116Z,9.30
2017-10-29T22:22:28.194Z,9.30
2017-10-29T22:24:56.278Z,9.30
2017-10-29T22:27:25.137Z,9.20
2017-10-29T22:29:53.228Z,9.10
2017-10-29T22:32:21.296Z,9.20
2017-10-29T22:34:49.364Z,9.20
2017-10-29T22:37:17.440Z,9.10
2017-10-29T22:39:45.549Z,9.10
2017-10-29T22:42:13.627Z,9.10
2017-10-29T22:44:41.733Z,9.10
2017-10-29T22:47:09.803Z,9.10
2017-10-29T22:49:37.924Z,9.10
2017-10-29T22:52:06.757Z,9.10
2017-10-29T22:54:34.839Z,9.10
2017-10-29T22:57:02.917Z,9.20
2017-10-29T22:59:30.975Z,9.10
2017-10-29T23:01:59.066Z,9.20
2017-10-29T23:04:27.119Z,9.10
2017-10-29T23:06:55.205Z,8.90
2017-10-29T23:09:24.038Z,8.60
2017-10-29T23:11:52.183Z,8.50
2017-10-29T23:14:20.231Z,8.60
2017-10-29T23:16:48.322Z,8.60
2017-10-29T23:19:16.378Z,8.60
2017-10-29T23:21:44.467Z,8.50
2017-10-29T23:24:12.540Z,8.50
2017-10-29T23:26:40.630Z,8.60
2017-10-29T23:29:08.684Z,8.70
2017-10-29T23:31:36.753Z,8.60
2017-10-29T23:34:04.818Z,8.70
2017-10-29T23:36:32.880Z,8.80
2017-10-29T23:39:00.963Z,8.70
2017-10-29T23:41:29.052Z,8.80
2017-10-29T23:43:57.111Z,8.80
2017-10-29T23:46:25.164Z,8.80
2017-10-29T23:48:53.250Z,8.70
2017-10-29T23:51:21.292Z,8.60
2017-10-29T23:53:49.375Z,8.60
2017-10-29T23:56:17.457Z,8.60
2017-10-29T23:58:45.631Z,8.60
